Time;durP1;ratioP1;P1;durP2;ratioP2;P2;SDS_P1;SDS_P2;PMS_P1;PMS_P2;Temp;Humidity;BMP_temperature;BMP_pressure;BME280_temperature;BME280_humidity;BME280_pressure;Samples;Min_cycle;Max_cycle;Signal;HPM_P1;HPM_P2
2023/05/12 00:01:52;;;;;;;12.30;7.50;;;;;;;6.89;60.17;97334.15;108863;1250;101414;-72
2023/05/12 00:04:20;;;;;;;14.70;7.50;;;;;;;6.89;60.20;97333.20;108854;1250;100113;-72
2023/05/12 00:06:48;;;;;;;11.80;7.10;;;;;;;6.87;60.23;97334.19;108837;1250;94380;-72
2023/05/12 00:09:16;;;;;;;11.50;6.80;;;;;;;6.84;60.33;97332.71;108891;1250;94662;-76
2023/05/12 00:11:47;;;;;;;11.40;6.80;;;;;;;6.81;60.35;97331.84;108855;1250;102289;-72
2023/05/12 00:14:15;;;;;;;8.60;6.40;;;;;;;6.77;60.53;97333.36;108881;1250;101370;-70
2023/05/12 00:16:43;;;;;;;12.30;6.90;;;;;;;6.74;60.61;97330.61;108837;1250;100086;-74
2023/05/12 00:19:12;;;;;;;10.30;6.50;;;;;;;6.71;60.77;97334.23;108916;1250;94420;-72
2023/05/12 00:21:42;;;;;;;11.10;6.80;;;;;;;6.66;60.76;97335.21;108959;1250;94530;-72
2023/05/12 00:24:10;;;;;;;9.00;6.00;;;;;;;6.60;60.82;97336.05;108912;1250;101323;-74
2023/05/12 00:26:38;;;;;;;8.70;5.90;;;;;;;6.56;60.96;97338.39;108861;1250;100510;-72
2023/05/12 00:29:06;;;;;;;9.70;5.50;;;;;;;6.49;60.96;97336.88;108876;1250;100265;-72
2023/05/12 00:31:34;;;;;;;8.30;5.40;;;;;;;6.44;61.16;97337.74;108647;1250;94416;-72
2023/05/12 00:34:02;;;;;;;8.10;5.30;;;;;;;6.38;61.25;97336.89;108547;1251;94479;-72
2023/05/12 00:36:30;;;;;;;7.30;5.20;;;;;;;6.32;61.39;97338.43;108798;1250;102371;-72
2023/05/12 00:38:58;;;;;;;6.70;5.50;;;;;;;6.28;61.53;97338.23;108924;1250;100011;-76
2023/05/12 00:41:27;;;;;;;7.80;5.30;;;;;;;6.24;61.57;97338.10;108900;1250;99932;-72
2023/05/12 00:43:55;;;;;;;8.10;5.50;;;;;;;6.19;61.64;97337.61;108843;1250;94281;-71
2023/05/12 00:46:23;;;;;;;7.80;5.80;;;;;;;6.15;61.81;97337.13;108568;1253;94685;-73
2023/05/12 00:48:52;;;;;;;11.10;6.20;;;;;;;6.12;61.93;97335.33;108771;1252;101908;-72
2023/05/12 00:51:20;;;;;;;9.10;6.30;;;;;;;6.11;62.05;97337.68;108776;1252;101578;-75
2023/05/12 00:53:49;;;;;;;10.80;6.40;;;;;;;6.08;62.14;97337.60;108462;1253;99825;-72
2023/05/12 00:56:19;;;;;;;10.80;6.70;;;;;;;6.04;62.33;97339.39;108427;1253;94292;-73
2023/05/12 00:58:48;;;;;;;11.50;6.90;;;;;;;5.99;62.38;97343.27;108795;1253;94524;-72
2023/05/12 01:01:16;;;;;;;11.80;6.90;;;;;;;5.96;62.52;97346.04;108758;1252;101775;-76
2023/05/12 01:03:45;;;;;;;14.00;7.30;;;;;;;5.94;62.48;97347.33;108759;1252;101519;-73
2023/05/12 01:06:22;;;;;;;10.30;6.60;;;;;;;5.91;62.51;97347.73;108774;1252;100183;-72
2023/05/12 01:08:51;;;;;;;11.20;7.20;;;;;;;5.86;62.65;97353.02;108778;1252;94580;-73
2023/05/12 01:11:19;;;;;;;14.40;6.70;;;;;;;5.83;62.69;97350.26;108586;1252;94280;-76
2023/05/12 01:13:47;;;;;;;11.50;7.00;;;;;;;5.85;62.80;97355.58;108606;1253;102252;-73
2023/05/12 01:16:17;;;;;;;9.70;7.00;;;;;;;5.83;62.98;97357.47;108594;1252;101149;-71
2023/05/12 01:18:50;;;;;;;13.70;8.00;;;;;;;5.75;63.08;97358.39;108771;1252;99899;-74
2023/05/12 01:21:18;;;;;;;12.30;7.00;;;;;;;5.71;63.15;97356.14;108755;1252;94671;-75
2023/05/12 01:23:58;;;;;;;7.90;6.30;;;;;;;5.68;63.23;97358.33;108820;1252;94793;-71
2023/05/12 01:26:28;;;;;;;10.00;7.20;;;;;;;5.60;63.33;97357.55;108584;1251;102216;-72
2023/05/12 01:28:57;;;;;;;13.10;6.90;;;;;;;5.54;63.46;97362.77;108866;1252;101341;-75
2023/05/12 01:31:26;;;;;;;10.00;6.40;;;;;;;5.52;63.58;97360.05;108790;1251;99765;-72
2023/05/12 01:33:54;;;;;;;7.60;5.70;;;;;;;5.51;63.62;97360.22;108793;1251;94568;-72
2023/05/12 01:36:22;;;;;;;9.30;6.80;;;;;;;5.49;63.54;97362.27;108480;1252;94717;-71
2023/05/12 01:38:50;;;;;;;9.50;5.80;;;;;;;5.43;63.56;97358.06;108743;1252;102407;-72
2023/05/12 01:41:18;;;;;;;8.50;5.90;;;;;;;5.39;63.61;97359.95;108826;1251;100033;-74
2023/05/12 01:43:46;;;;;;;10.10;6.40;;;;;;;5.34;63.75;97357.88;108717;1252;99982;-72
2023/05/12 01:46:15;;;;;;;8.20;5.90;;;;;;;5.29;63.98;97356.31;108750;1250;94294;-73
2023/05/12 01:48:43;;;;;;;8.30;6.10;;;;;;;5.29;64.11;97355.82;108892;1250;94859;-72
2023/05/12 01:51:11;;;;;;;9.70;6.50;;;;;;;5.27;64.12;97358.04;108874;1251;102622;-72
2023/05/12 01:53:39;;;;;;;7.70;6.30;;;;;;;5.22;64.14;97354.82;108849;1250;101420;-76
2023/05/12 01:56:07;;;;;;;9.40;6.60;;;;;;;5.19;64.19;97354.89;108821;1251;100121;-71
2023/05/12 01:58:35;;;;;;;9.30;6.30;;;;;;;5.14;64.18;97353.19;108533;1250;94296;-73
2023/05/12 02:01:03;;;;;;;11.00;6.00;;;;;;;5.08;64.15;97353.98;108837;1251;94648;-73
2023/05/12 02:03:31;;;;;;;7.60;5.50;;;;;;;5.04;64.32;97350.55;108871;1251;101924;-73
2023/05/12 02:05:59;;;;;;;7.50;5.50;;;;;;;4.97;64.37;97350.49;108903;1250;101363;-76
2023/05/12 02:08:27;;;;;;;8.70;5.50;;;;;;;4.89;64.46;97350.17;108795;1251;99660;-73
2023/05/12 02:11:21;;;;;;;10.30;6.40;;;;;;;4.87;64.75;97349.48;108817;1250;94164;-72
2023/05/12 02:13:50;;;;;;;8.70;5.50;;;;;;;4.84;64.91;97344.27;108260;1257;95369;-74
2023/05/12 02:16:18;;;;;;;8.90;5.80;;;;;;;4.79;64.92;97341.52;108105;1257;101815;-73
2023/05/12 02:18:46;;;;;;;8.30;6.00;;;;;;;4.75;64.96;97339.99;108266;1257;109853;-73
2023/05/12 02:21:14;;;;;;;6.80;5.70;;;;;;;4.70;65.10;97336.50;108204;1258;100248;-76
2023/05/12 02:23:42;;;;;;;6.70;5.60;;;;;;;4.66;65.26;97336.92;108207;1257;94597;-76
2023/05/12 02:26:11;;;;;;;9.30;5.60;;;;;;;4.65;65.42;97336.55;108076;1257;94690;-72
2023/05/12 02:28:39;;;;;;;8.30;6.40;;;;;;;4.61;65.48;97334.29;108273;1257;101214;-73
2023/05/12 02:31:07;;;;;;;9.10;6.60;;;;;;;4.59;65.52;97336.85;108264;1257;101389;-73
2023/05/12 02:33:35;;;;;;;8.30;6.00;;;;;;;4.58;65.67;97336.95;108245;1257;98705;-74
2023/05/12 02:36:04;;;;;;;10.60;6.20;;;;;;;4.54;65.61;97341.90;108131;1257;94717;-74
2023/05/12 02:38:32;;;;;;;9.70;6.70;;;;;;;4.47;65.60;97343.06;108265;1257;94684;-71
2023/05/12 02:41:00;;;;;;;9.40;6.30;;;;;;;4.43;65.77;97340.28;108249;1257;102153;-73
2023/05/12 02:43:28;;;;;;;10.60;6.70;;;;;;;4.38;65.89;97338.77;108319;1257;101408;-72
2023/05/12 02:45:56;;;;;;;10.60;7.30;;;;;;;4.33;66.10;97341.66;108286;1257;99887;-78
2023/05/12 02:48:24;;;;;;;12.30;7.70;;;;;;;4.29;66.16;97342.27;108300;1257;94755;-73
2023/05/12 02:50:52;;;;;;;10.30;6.70;;;;;;;4.28;66.23;97344.18;108401;1251;95209;-72
2023/05/12 02:53:20;;;;;;;11.80;6.40;;;;;;;4.26;66.34;97344.39;108632;1251;102284;-73
2023/05/12 02:55:49;;;;;;;9.30;6.80;;;;;;;4.26;66.41;97342.12;108629;1250;101329;-75
2023/05/12 02:58:17;;;;;;;7.90;6.00;;;;;;;4.26;66.50;97344.69;108846;1250;99947;-74
2023/05/12 03:00:45;;;;;;;9.60;6.10;;;;;;;4.27;66.40;97342.31;108736;1251;94230;-73
2023/05/12 03:03:14;;;;;;;10.40;6.40;;;;;;;4.25;66.45;97345.27;108894;1250;94497;-73
2023/05/12 03:05:42;;;;;;;8.60;6.80;;;;;;;4.19;66.52;97343.55;108864;1250;102573;-72
2023/05/12 03:08:10;;;;;;;10.10;7.40;;;;;;;4.15;66.56;97342.09;109044;1249;101544;-71
2023/05/12 03:10:38;;;;;;;8.20;5.90;;;;;;;4.13;66.63;97343.06;108933;1250;100128;-78
2023/05/12 03:13:06;;;;;;;8.10;6.10;;;;;;;4.10;66.75;97341.58;108842;1251;94233;-76
2023/05/12 03:15:35;;;;;;;11.80;6.70;;;;;;;4.06;66.78;97337.92;108820;1251;94576;-74
2023/05/12 03:18:03;;;;;;;8.80;7.20;;;;;;;4.04;66.82;97337.09;108702;1253;102119;-74
2023/05/12 03:20:31;;;;;;;10.30;7.10;;;;;;;4.02;66.86;97340.90;108853;1252;101385;-78
2023/05/12 03:22:59;;;;;;;10.00;6.90;;;;;;;3.99;66.97;97337.10;108778;1251;100154;-72
2023/05/12 03:25:27;;;;;;;11.60;7.10;;;;;;;3.97;67.11;97339.50;108571;1251;94339;-73
2023/05/12 03:27:56;;;;;;;10.40;6.80;;;;;;;3.94;67.20;97338.16;108719;1251;95123;-74
2023/05/12 03:30:24;;;;;;;12.10;6.90;;;;;;;3.93;67.37;97340.27;108799;1251;101704;-72
2023/05/12 03:32:52;;;;;;;9.50;7.00;;;;;;;3.91;67.41;97341.17;108781;1253;101080;-74
2023/05/12 03:35:20;;;;;;;9.10;6.60;;;;;;;3.92;67.47;97341.84;108839;1250;99004;-73
2023/05/12 03:37:48;;;;;;;10.10;7.20;;;;;;;3.91;67.55;97342.81;108776;1251;94894;-72
2023/05/12 03:40:17;;;;;;;11.30;7.60;;;;;;;3.91;67.72;97346.17;108892;1250;94493;-71
2023/05/12 03:42:45;;;;;;;11.70;7.20;;;;;;;3.92;67.78;97346.95;108806;1251;102208;-73
2023/05/12 03:45:13;;;;;;;11.80;6.80;;;;;;;3.92;67.85;97346.45;108811;1250;101329;-75
2023/05/12 03:47:41;;;;;;;9.70;6.70;;;;;;;3.90;67.91;97346.52;108859;1250;99826;-73
2023/05/12 03:50:10;;;;;;;11.80;7.40;;;;;;;3.91;68.04;97349.75;108729;1251;94524;-73
2023/05/12 03:52:40;;;;;;;11.30;7.60;;;;;;;3.94;68.07;97349.45;108893;1250;94344;-76
2023/05/12 03:55:09;;;;;;;11.00;6.90;;;;;;;3.96;68.19;97348.09;108898;1251;101833;-73
2023/05/12 03:57:37;;;;;;;13.70;7.80;;;;;;;4.00;68.19;97347.75;108784;1250;101504;-74
2023/05/12 04:00:06;;;;;;;8.30;6.40;;;;;;;4.04;68.31;97347.14;108788;1251;100023;-73
2023/05/12 04:02:34;;;;;;;10.40;6.70;;;;;;;4.09;68.33;97347.94;108632;1250;94558;-71
2023/05/12 04:05:02;;;;;;;8.60;6.50;;;;;;;4.14;68.28;97347.02;108881;1250;94465;-72
2023/05/12 04:07:30;;;;;;;9.60;7.00;;;;;;;4.18;68.42;97352.14;108901;1251;102543;-73
2023/05/12 04:09:58;;;;;;;8.60;6.50;;;;;;;4.22;68.50;97348.65;108843;1250;101379;-74
2023/05/12 04:12:26;;;;;;;12.40;7.20;;;;;;;4.25;68.66;97349.33;108907;1250;99637;-73
2023/05/12 04:14:54;;;;;;;11.30;7.00;;;;;;;4.31;68.75;97351.20;108879;1250;94525;-73
2023/05/12 04:17:22;;;;;;;8.90;7.00;;;;;;;4.36;68.81;97348.59;108899;1251;94538;-74
2023/05/12 04:19:51;;;;;;;10.50;7.30;;;;;;;4.42;68.75;97349.17;108898;1252;102217;-76
2023/05/12 04:22:19;;;;;;;14.60;8.00;;;;;;;4.51;68.74;97345.98;108555;1251;100566;-74
2023/05/12 04:24:48;;;;;;;12.00;7.50;;;;;;;4.59;68.80;97347.90;108737;1250;99943;-73
2023/05/12 04:27:16;;;;;;;9.60;6.90;;;;;;;4.66;68.81;97347.57;108868;1250;94218;-72
2023/05/12 04:29:44;;;;;;;11.10;7.50;;;;;;;4.73;68.93;97350.58;108606;1251;94656;-73
2023/05/12 04:32:12;;;;;;;13.40;7.60;;;;;;;4.79;68.79;97351.89;108843;1250;102379;-73
2023/05/12 04:34:40;;;;;;;12.20;8.10;;;;;;;4.85;68.87;97348.66;108604;1250;100303;-76
2023/05/12 04:37:08;;;;;;;11.90;8.10;;;;;;;4.91;68.98;97349.73;108901;1250;99021;-76
2023/05/12 04:39:36;;;;;;;10.50;8.30;;;;;;;4.98;69.06;97348.78;108781;1251;94219;-72
2023/05/12 04:42:04;;;;;;;14.20;8.90;;;;;;;5.04;69.04;97349.44;108637;1250;94678;-73
2023/05/12 04:44:32;;;;;;;15.70;9.00;;;;;;;5.11;69.11;97351.48;108893;1253;102250;-75
2023/05/12 04:47:01;;;;;;;14.30;9.60;;;;;;;5.19;69.12;97351.14;108826;1252;101540;-72
2023/05/12 04:49:29;;;;;;;11.80;8.70;;;;;;;5.27;69.18;97348.87;108836;1250;100169;-72
2023/05/12 04:51:57;;;;;;;13.90;9.70;;;;;;;5.36;69.23;97347.98;108867;1250;94429;-72
2023/05/12 04:54:25;;;;;;;13.40;9.30;;;;;;;5.46;69.21;97346.73;108937;1250;94427;-72
2023/05/12 04:56:53;;;;;;;15.40;9.40;;;;;;;5.55;69.40;97346.89;108816;1250;101757;-77
2023/05/12 04:59:21;;;;;;;16.10;10.00;;;;;;;5.65;69.58;97346.94;108844;1251;100993;-72
2023/05/12 05:01:49;;;;;;;16.00;9.70;;;;;;;5.75;69.54;97349.65;108839;1250;99889;-73
2023/05/12 05:04:17;;;;;;;15.40;9.60;;;;;;;5.85;69.56;97352.00;108786;1250;94234;-71
2023/05/12 05:06:45;;;;;;;17.40;10.70;;;;;;;5.97;69.41;97349.55;108865;1250;94573;-73
2023/05/12 05:09:13;;;;;;;14.50;10.70;;;;;;;6.08;69.47;97345.52;108777;1250;102235;-74
2023/05/12 05:11:42;;;;;;;17.20;9.40;;;;;;;6.20;69.34;97343.34;108907;1250;101613;-76
2023/05/12 05:14:10;;;;;;;14.90;9.90;;;;;;;6.31;69.37;97347.86;108601;1250;101155;-74
2023/05/12 05:16:38;;;;;;;13.70;9.30;;;;;;;6.43;69.44;97351.48;108777;1251;94189;-75
2023/05/12 05:19:06;;;;;;;18.70;9.60;;;;;;;6.54;69.57;97349.14;108912;1250;94773;-72
2023/05/12 05:21:34;;;;;;;13.70;9.50;;;;;;;6.67;69.30;97351.45;108797;1251;102457;-75
2023/05/12 05:24:02;;;;;;;12.10;8.90;;;;;;;6.81;68.99;97347.27;108771;1251;102205;-72
2023/05/12 05:26:31;;;;;;;13.90;9.00;;;;;;;6.94;69.12;97348.34;108832;1250;99471;-75
2023/05/12 05:28:59;;;;;;;15.30;9.30;;;;;;;7.08;69.17;97347.03;108591;1251;94668;-72
2023/05/12 05:31:27;;;;;;;14.10;9.30;;;;;;;7.23;69.35;97350.95;108517;1250;94724;-76
2023/05/12 05:33:56;;;;;;;14.80;8.50;;;;;;;7.38;69.18;97352.61;108896;1250;102261;-73
2023/05/12 05:36:25;;;;;;;19.10;9.40;;;;;;;7.54;69.08;97350.41;108583;1251;101301;-73
2023/05/12 05:38:53;;;;;;;14.60;9.00;;;;;;;7.71;69.04;97348.31;108835;1250;99132;-72
2023/05/12 05:41:21;;;;;;;15.90;7.90;;;;;;;7.87;69.15;97345.66;108872;1254;94228;-75
2023/05/12 05:43:50;;;;;;;14.50;7.90;;;;;;;8.06;69.30;97346.46;108843;1250;94482;-74
2023/05/12 05:46:18;;;;;;;15.20;8.30;;;;;;;8.26;69.20;97344.27;108525;1250;102030;-73
2023/05/12 05:48:46;;;;;;;11.40;8.00;;;;;;;8.44;68.83;97344.59;108584;1251;100299;-73
2023/05/12 05:51:14;;;;;;;13.40;8.00;;;;;;;8.63;68.58;97343.77;108850;1250;99642;-76
2023/05/12 05:53:42;;;;;;;5.10;3.70;;;;;;;8.87;68.23;97340.85;108915;1250;94209;-73
2023/05/12 05:56:11;;;;;;;7.20;3.80;;;;;;;9.19;67.78;97342.05;108937;1250;95505;-75
2023/05/12 05:58:39;;;;;;;6.00;3.60;;;;;;;9.58;67.41;97345.20;108580;1251;102249;-73
2023/05/12 06:01:07;;;;;;;6.70;3.30;;;;;;;9.95;66.54;97346.58;108826;1251;101552;-72
2023/05/12 06:03:35;;;;;;;4.70;2.90;;;;;;;10.25;66.09;97340.13;108758;1251;99996;-73
2023/05/12 06:06:03;;;;;;;6.70;3.20;;;;;;;10.53;65.31;97345.88;108829;1250;94524;-73
2023/05/12 06:08:31;;;;;;;6.70;2.80;;;;;;;10.82;64.48;97345.68;108532;1251;94669;-76
2023/05/12 06:11:00;;;;;;;3.60;2.60;;;;;;;11.12;63.94;97346.12;108924;1250;102120;-73
2023/05/12 06:13:28;;;;;;;5.30;3.20;;;;;;;11.42;63.41;97344.95;108870;1251;101270;-74
2023/05/12 06:15:56;;;;;;;3.70;2.70;;;;;;;11.67;62.93;97345.60;108850;1251;99601;-73
2023/05/12 06:18:24;;;;;;;7.80;3.10;;;;;;;11.90;62.31;97340.16;108879;1250;94204;-72
2023/05/12 06:20:52;;;;;;;3.60;2.50;;;;;;;12.14;61.58;97342.43;108896;1250;94668;-75
2023/05/12 06:23:20;;;;;;;6.20;3.10;;;;;;;12.35;60.88;97336.44;108855;1250;102129;-73
2023/05/12 06:25:49;;;;;;;5.40;2.70;;;;;;;12.55;60.14;97343.05;108560;1250;101480;-73
2023/05/12 06:28:17;;;;;;;7.20;2.80;;;;;;;12.77;59.69;97346.40;108846;1252;99922;-73
2023/05/12 06:30:46;;;;;;;7.20;2.50;;;;;;;12.96;59.19;97347.49;108826;1250;94317;-77
2023/05/12 06:33:14;;;;;;;2.50;2.30;;;;;;;13.16;58.49;97347.09;108921;1250;95069;-77
2023/05/12 06:35:42;;;;;;;4.40;2.30;;;;;;;13.37;57.95;97348.77;108541;1250;102541;-79
2023/05/12 06:38:10;;;;;;;10.40;2.60;;;;;;;13.57;57.22;97348.59;108912;1250;101274;-71
2023/05/12 06:40:38;;;;;;;2.60;2.20;;;;;;;13.77;56.39;97350.79;108799;1250;99971;-76
2023/05/12 06:43:06;;;;;;;4.60;2.50;;;;;;;13.94;55.83;97350.84;108548;1250;94663;-73
2023/05/12 06:45:35;;;;;;;4.00;2.50;;;;;;;14.11;55.26;97350.36;108912;1251;94347;-73
2023/05/12 06:48:04;;;;;;;2.60;2.40;;;;;;;14.25;54.58;97351.58;108910;1250;102264;-75
2023/05/12 06:50:32;;;;;;;3.80;2.20;;;;;;;14.38;53.89;97352.55;108912;1254;101244;-73
2023/05/12 06:53:00;;;;;;;3.20;2.30;;;;;;;14.51;53.68;97351.76;108902;1250;100104;-73
2023/05/12 06:55:28;;;;;;;4.50;2.50;;;;;;;14.65;53.60;97350.61;108856;1250;94253;-73
2023/05/12 06:57:57;;;;;;;6.00;2.50;;;;;;;14.79;53.08;97356.24;108868;1250;95220;-73
2023/05/12 07:00:26;;;;;;;2.70;2.00;;;;;;;14.91;52.57;97357.46;108836;1251;102426;-73
2023/05/12 07:02:54;;;;;;;4.80;2.10;;;;;;;15.03;51.85;97359.14;108806;1251;101506;-73
2023/05/12 07:05:22;;;;;;;5.70;2.30;;;;;;;15.15;51.64;97364.45;108499;1251;99276;-74
2023/05/12 07:07:50;;;;;;;2.60;2.20;;;;;;;15.28;51.40;97364.67;108827;1251;94215;-76
2023/05/12 07:10:19;;;;;;;5.20;2.60;;;;;;;15.41;50.87;97361.42;108923;1250;94521;-73
2023/05/12 07:12:48;;;;;;;5.40;2.30;;;;;;;15.51;50.57;97360.75;108876;1250;102126;-72
2023/05/12 07:15:16;;;;;;;7.10;2.50;;;;;;;15.64;50.65;97366.01;108886;1251;101126;-73
2023/05/12 07:17:44;;;;;;;5.20;2.30;;;;;;;15.76;49.82;97367.93;108645;1251;99378;-73
2023/05/12 07:20:12;;;;;;;3.20;2.30;;;;;;;15.87;49.14;97368.39;108798;1250;94379;-78
2023/05/12 07:22:41;;;;;;;10.40;2.80;;;;;;;15.96;49.08;97369.41;108822;1250;94359;-74
2023/05/12 07:25:09;;;;;;;4.90;2.10;;;;;;;16.07;48.86;97373.63;108866;1253;101981;-72
2023/05/12 07:27:37;;;;;;;4.30;2.40;;;;;;;16.17;48.08;97371.84;108584;1251;101332;-78
2023/05/12 07:30:07;;;;;;;5.90;2.40;;;;;;;16.26;47.95;97372.90;108816;1250;99711;-75
2023/05/12 07:32:35;;;;;;;3.30;2.30;;;;;;;16.41;47.96;97364.58;108735;1251;94260;-77
2023/05/12 07:35:04;;;;;;;3.30;2.20;;;;;;;16.64;47.47;97365.15;108876;1250;94301;-73
2023/05/12 07:37:32;;;;;;;5.10;2.40;;;;;;;16.91;46.85;97364.78;108907;1250;102147;-73
2023/05/12 07:40:00;;;;;;;8.30;2.20;;;;;;;17.26;46.95;97364.02;108910;1250;101337;-74
2023/05/12 07:42:28;;;;;;;4.10;2.70;;;;;;;17.62;46.82;97366.77;108632;1250;99974;-72
2023/05/12 07:44:57;;;;;;;5.10;2.30;;;;;;;17.95;46.26;97368.27;108781;1251;94434;-74
2023/05/12 07:47:27;;;;;;;3.50;1.90;;;;;;;18.28;45.39;97368.83;108812;1253;94348;-73
2023/05/12 07:49:55;;;;;;;3.50;2.30;;;;;;;18.68;44.90;97369.63;108917;1250;101443;-73
2023/05/12 07:52:23;;;;;;;4.30;2.10;;;;;;;19.00;43.81;97366.59;108888;1253;101285;-74
2023/05/12 07:54:51;;;;;;;5.70;2.10;;;;;;;19.30;43.76;97365.30;108858;1250;99762;-73
2023/05/12 07:57:20;;;;;;;5.00;2.00;;;;;;;19.68;43.08;97366.42;108959;1250;94216;-73
2023/05/12 07:59:48;;;;;;;2.70;2.20;;;;;;;20.07;42.14;97367.09;108864;1251;94234;-77
2023/05/12 08:02:16;;;;;;;8.30;1.90;;;;;;;20.45;41.96;97367.17;108859;1250;102347;-74
2023/05/12 08:04:44;;;;;;;2.10;1.80;;;;;;;20.81;40.72;97365.80;108843;1251;101020;-73
2023/05/12 08:07:13;;;;;;;4.70;1.80;;;;;;;21.08;39.91;97364.25;108863;1251;99399;-73
2023/05/12 08:09:41;;;;;;;3.80;2.50;;;;;;;21.39;39.60;97366.63;108794;1254;94270;-73
2023/05/12 08:12:09;;;;;;;4.40;2.00;;;;;;;21.72;39.00;97368.66;108756;1251;95147;-74
2023/05/12 08:14:37;;;;;;;9.60;1.90;;;;;;;22.03;38.52;97367.88;108591;1250;102102;-75
2023/05/12 08:17:05;;;;;;;3.60;1.80;;;;;;;22.26;37.40;97370.19;108929;1250;100391;-74
2023/05/12 08:19:33;;;;;;;3.60;2.00;;;;;;;22.49;36.92;97373.23;108894;1250;99842;-74
2023/05/12 08:22:02;;;;;;;2.10;1.80;;;;;;;22.80;36.44;97371.64;108799;1250;95168;-73
2023/05/12 08:24:30;;;;;;;3.30;1.80;;;;;;;23.05;35.44;97367.81;108914;1250;94390;-74
2023/05/12 08:26:58;;;;;;;2.60;1.60;;;;;;;23.35;35.12;97367.23;108828;1250;102395;-73
2023/05/12 08:29:26;;;;;;;2.70;1.80;;;;;;;23.68;35.11;97361.66;108765;1255;101295;-72
2023/05/12 08:31:55;;;;;;;3.50;2.20;;;;;;;24.05;34.10;97366.92;108883;1250;99936;-72
2023/05/12 08:34:24;;;;;;;2.90;2.10;;;;;;;24.26;33.55;97370.48;108863;1250;94219;-72
2023/05/12 08:36:53;;;;;;;11.00;2.00;;;;;;;24.55;33.21;97374.64;108788;1251;94508;-72
2023/05/12 08:39:21;;;;;;;3.40;1.70;;;;;;;24.64;32.04;97368.52;108896;1250;101307;-72
2023/05/12 08:42:01;;;;;;;3.00;1.50;;;;;;;24.48;31.45;97364.54;108614;1250;101379;-72
2023/05/12 08:44:30;;;;;;;2.30;1.90;;;;;;;24.01;31.01;97364.34;108686;1251;99999;-73
2023/05/12 08:46:59;;;;;;;2.20;2.00;;;;;;;24.13;31.41;97363.16;108887;1250;94322;-72
2023/05/12 08:49:31;;;;;;;3.90;1.90;;;;;;;24.45;31.24;97363.55;108821;1251;94360;-72
2023/05/12 08:52:02;;;;;;;2.00;1.70;;;;;;;24.24;31.03;97359.02;108920;1250;101726;-72
2023/05/12 08:54:30;;;;;;;2.30;1.70;;;;;;;23.89;30.89;97358.77;108848;1251;101751;-72
2023/05/12 08:56:59;;;;;;;4.10;2.00;;;;;;;23.50;30.76;97361.55;108754;1251;100121;-74
2023/05/12 08:59:28;;;;;;;2.50;1.80;;;;;;;23.26;30.80;97364.04;108759;1251;94304;-72
2023/05/12 09:01:56;;;;;;;3.10;1.60;;;;;;;23.59;30.79;97354.17;108601;1251;180912;-73
2023/05/12 09:04:25;;;;;;;4.90;1.90;;;;;;;24.10;30.81;97364.09;108838;1251;102207;-76
2023/05/12 09:06:53;;;;;;;2.60;1.60;;;;;;;24.62;30.64;97366.13;108882;1254;101320;-72
2023/05/12 09:09:21;;;;;;;2.10;1.90;;;;;;;25.04;29.81;97362.89;108738;1251;99965;-75
2023/05/12 09:11:56;;;;;;;4.60;1.50;;;;;;;25.40;29.18;97362.73;108717;1251;94321;-73
2023/05/12 09:14:26;;;;;;;3.00;1.90;;;;;;;25.48;28.54;97362.63;108832;1251;94392;-72
2023/05/12 09:17:00;;;;;;;4.40;1.80;;;;;;;25.43;28.54;97365.54;108830;1255;102746;-72
2023/05/12 09:19:28;;;;;;;2.30;1.50;;;;;;;25.56;27.86;97365.61;108837;1251;101002;-75
2023/05/12 09:21:56;;;;;;;1.90;1.80;;;;;;;25.49;28.04;97367.86;108763;1251;98983;-75
2023/05/12 09:24:39;;;;;;;3.80;1.80;;;;;;;25.63;28.41;97364.54;108832;1251;94225;-72
2023/05/12 09:27:07;;;;;;;4.60;2.00;;;;;;;25.67;28.43;97363.41;108919;1250;95220;-72
2023/05/12 09:29:35;;;;;;;2.90;2.00;;;;;;;25.53;28.10;97367.27;108622;1251;102242;-72
2023/05/12 09:32:04;;;;;;;4.40;1.90;;;;;;;25.11;28.16;97364.03;108922;1254;110062;-73
2023/05/12 09:34:37;;;;;;;4.10;2.00;;;;;;;24.68;27.93;97374.35;108765;1251;99009;-73
2023/05/12 09:37:07;;;;;;;3.50;2.00;;;;;;;24.32;28.39;97375.85;108869;1254;94229;-72
2023/05/12 09:39:36;;;;;;;3.70;2.00;;;;;;;24.16;28.33;97371.50;108878;1253;94631;-72
2023/05/12 09:42:04;;;;;;;2.70;1.80;;;;;;;23.98;28.46;97370.77;108574;1251;101507;-72
2023/05/12 09:44:32;;;;;;;5.70;2.10;;;;;;;24.20;28.91;97366.53;108844;1251;100621;-72
2023/05/12 09:47:09;;;;;;;3.20;1.90;;;;;;;24.45;28.78;97366.42;108810;1251;98984;-74
2023/05/12 09:49:37;;;;;;;3.80;1.70;;;;;;;24.50;28.25;97365.83;108772;1251;94287;-72
2023/05/12 09:52:05;;;;;;;3.50;2.10;;;;;;;24.35;27.96;97364.48;108895;1252;94294;-72
2023/05/12 09:54:34;;;;;;;5.40;1.70;;;;;;;24.03;27.82;97365.89;108859;1251;101344;-72
2023/05/12 09:57:04;;;;;;;3.80;1.70;;;;;;;23.97;28.28;97363.89;108897;1249;101352;-72
2023/05/12 09:59:37;;;;;;;2.00;1.80;;;;;;;24.15;28.23;97360.65;108906;1251;99924;-72
2023/05/12 10:02:08;;;;;;;4.60;1.90;;;;;;;24.48;28.06;97357.27;108732;1255;94190;-72
2023/05/12 10:04:50;;;;;;;2.60;1.60;;;;;;;24.71;27.44;97359.83;108834;1252;94233;-74
2023/05/12 10:07:22;;;;;;;2.80;1.80;;;;;;;24.87;27.20;97358.56;108556;1250;102717;-73
2023/05/12 10:09:51;;;;;;;2.40;1.70;;;;;;;24.73;26.98;97364.61;108849;1251;101886;-72
2023/05/12 10:12:19;;;;;;;5.60;1.70;;;;;;;24.57;26.48;97366.10;108849;1251;99938;-77
2023/05/12 10:14:49;;;;;;;3.30;1.60;;;;;;;24.35;26.41;97365.63;108847;1250;94209;-72
2023/05/12 10:17:19;;;;;;;2.70;1.50;;;;;;;24.13;26.53;97362.66;108869;1251;94246;-72
2023/05/12 10:19:49;;;;;;;2.10;1.50;;;;;;;24.18;26.82;97362.10;108878;1251;102141;-74
2023/05/12 10:22:20;;;;;;;1.80;1.60;;;;;;;24.21;26.65;97360.35;108863;1250;101596;-73
2023/05/12 10:24:49;;;;;;;4.10;1.80;;;;;;;24.14;26.99;97365.30;108572;1251;99441;-72
2023/05/12 10:27:18;;;;;;;5.60;2.20;;;;;;;24.07;26.96;97365.73;108598;1251;94233;-72
2023/05/12 10:29:47;;;;;;;3.90;2.00;;;;;;;23.87;27.57;97364.88;108728;1251;95062;-75
2023/05/12 10:32:15;;;;;;;2.90;1.70;;;;;;;23.63;27.02;97360.84;108860;1251;102193;-72
2023/05/12 10:34:43;;;;;;;2.70;2.20;;;;;;;23.45;27.52;97356.71;108820;1251;101063;-73
2023/05/12 10:37:12;;;;;;;2.90;1.90;;;;;;;23.47;27.53;97357.45;108554;1251;99939;-73
2023/05/12 10:39:49;;;;;;;3.40;1.60;;;;;;;23.28;27.20;97352.62;108824;1251;94485;-72
2023/05/12 10:42:23;;;;;;;2.00;1.70;;;;;;;23.13;27.73;97353.86;108884;1251;95266;-74
2023/05/12 10:44:56;;;;;;;4.10;2.20;;;;;;;23.16;27.87;97350.73;108826;1251;101802;-74
2023/05/12 10:47:26;;;;;;;5.40;2.20;;;;;;;23.02;27.80;97350.90;108839;1250;101346;-73
2023/05/12 10:49:58;;;;;;;3.90;1.90;;;;;;;22.74;27.16;97350.40;108734;1251;99854;-73
2023/05/12 10:52:26;;;;;;;3.30;2.20;;;;;;;22.63;28.25;97347.52;108858;1250;94274;-74
2023/05/12 10:55:03;;;;;;;3.40;1.60;;;;;;;22.86;28.50;97343.90;108882;1251;94344;-73
2023/05/12 10:57:32;;;;;;;5.80;1.90;;;;;;;22.89;28.03;97349.77;108833;1251;101894;-73
2023/05/12 11:00:01;;;;;;;2.80;1.90;;;;;;;22.80;28.06;97351.66;108632;1250;100876;-74
2023/05/12 11:02:31;;;;;;;5.70;2.20;;;;;;;22.60;27.97;97352.06;108845;1251;99994;-73
2023/05/12 11:05:03;;;;;;;3.30;1.80;;;;;;;22.45;28.34;97354.30;108804;1251;94570;-75
2023/05/12 11:07:33;;;;;;;1.80;1.50;;;;;;;22.61;28.17;97354.54;108861;1251;94426;-71
2023/05/12 11:10:03;;;;;;;4.00;2.10;;;;;;;22.83;28.16;97355.39;108789;1251;101820;-72
2023/05/12 11:12:34;;;;;;;5.70;2.00;;;;;;;22.65;27.90;97355.11;108807;1251;101113;-72
2023/05/12 11:15:03;;;;;;;4.20;2.10;;;;;;;22.39;28.22;97355.02;108845;1251;99898;-72
2023/05/12 11:17:31;;;;;;;4.90;2.00;;;;;;;22.25;28.66;97358.59;108843;1251;94443;-75
2023/05/12 11:20:00;;;;;;;4.90;2.00;;;;;;;22.19;28.70;97364.52;108627;1251;94419;-73
2023/05/12 11:22:28;;;;;;;2.40;1.80;;;;;;;22.06;28.19;97357.75;108854;1250;101087;-73
2023/05/12 11:24:56;;;;;;;2.20;1.90;;;;;;;22.09;28.38;97351.95;108839;1250;101565;-76
2023/05/12 11:27:24;;;;;;;2.20;1.60;;;;;;;22.39;29.18;97352.20;108810;1250;100034;-72
2023/05/12 11:30:01;;;;;;;2.90;2.00;;;;;;;22.56;28.57;97350.61;108812;1251;94215;-72
2023/05/12 11:32:30;;;;;;;2.20;1.80;;;;;;;22.54;27.97;97354.88;108787;1251;94309;-72